createdAt,value
2022-10-03T00:00:18.687Z,97908.81
2022-10-03T00:02:57.137Z,97903.16
2022-10-03T00:05:36.259Z,97907.34
2022-10-03T00:08:16.375Z,97916.94
2022-10-03T00:10:58.843Z,97927.97
2022-10-03T00:13:40.798Z,97933.63
2022-10-03T00:16:20.865Z,97934.22
2022-10-03T00:18:53.838Z,97929.41
2022-10-03T00:21:46.150Z,97925.22
2022-10-03T00:24:33.772Z,97926.56
2022-10-03T00:27:09.406Z,97934.13
2022-10-03T00:29:39.104Z,97940.25
2022-10-03T00:32:11.349Z,97940.97
2022-10-03T00:34:56.866Z,97941.69
2022-10-03T00:37:30.526Z,97949.09
2022-10-03T00:40:19.770Z,97955.34
2022-10-03T00:43:00.722Z,97960.03
2022-10-03T00:45:55.691Z,97983.44
2022-10-03T00:48:41.496Z,97990.13
2022-10-03T00:51:45.241Z,97968.66
2022-10-03T00:54:46.239Z,97970.56
2022-10-03T00:57:31.092Z,97973.22
2022-10-03T01:00:24.976Z,97972.13
2022-10-03T01:03:00.259Z,97973.31
2022-10-03T01:06:05.049Z,97980.50
2022-10-03T01:09:04.038Z,97987.69
2022-10-03T01:11:49.442Z,97998.34
2022-10-03T01:14:38.946Z,97997.38
2022-10-03T01:17:11.655Z,98002.38
2022-10-03T01:19:45.872Z,97994.84
2022-10-03T01:22:34.219Z,97989.09
2022-10-03T01:25:24.039Z,97989.19
2022-10-03T01:28:14.334Z,97986.56
2022-10-03T01:30:50.831Z,97986.56
2022-10-03T01:33:28.479Z,97985.72
2022-10-03T01:36:02.524Z,97991.69
2022-10-03T01:38:47.940Z,98000.47
2022-10-03T01:41:34.896Z,97996.38
2022-10-03T01:44:12.832Z,97977.19
2022-10-03T01:46:41.997Z,97982.09
2022-10-03T01:49:22.135Z,97973.13
2022-10-03T01:52:00.913Z,97990.25
2022-10-03T01:54:39.594Z,97978.97
2022-10-03T01:57:22.085Z,97978.25
2022-10-03T02:00:02.200Z,97976.34
2022-10-03T02:02:44.163Z,97982.00
2022-10-03T02:05:29.252Z,97985.47
2022-10-03T02:08:24.004Z,97982.84
2022-10-03T02:11:05.035Z,97973.72
2022-10-03T02:13:55.267Z,97978.25
2022-10-03T02:16:34.238Z,97976.69
2022-10-03T02:19:13.071Z,97971.19
2022-10-03T02:21:48.816Z,97967.09
2022-10-03T02:24:15.477Z,97978.13
2022-10-03T02:27:20.097Z,97980.19
2022-10-03T02:30:05.487Z,97977.88
2022-10-03T02:33:00.065Z,97968.03
2022-10-03T02:35:52.132Z,97974.13
2022-10-03T02:38:27.026Z,97962.38
2022-10-03T02:41:41.161Z,97968.03
2022-10-03T02:44:46.423Z,97975.72
2022-10-03T02:47:45.547Z,97969.34
2022-10-03T02:50:30.923Z,97963.09
2022-10-03T02:53:12.652Z,97965.75
2022-10-03T02:55:57.380Z,97969.22
2022-10-03T02:59:09.414Z,97963.00
2022-10-03T03:02:00.078Z,97965.03
2022-10-03T03:05:15.093Z,97954.00
2022-10-03T03:08:09.272Z,97954.56
2022-10-03T03:11:09.442Z,97947.63
2022-10-03T03:13:59.192Z,97944.88
2022-10-03T03:16:42.728Z,97946.91
2022-10-03T03:19:24.195Z,97939.25
2022-10-03T03:22:01.356Z,97937.19
2022-10-03T03:24:40.085Z,97940.56
2022-10-03T03:27:09.869Z,97943.31
2022-10-03T03:29:48.279Z,97949.53
2022-10-03T03:32:38.808Z,97947.50
2022-10-03T03:35:35.557Z,97944.63
2022-10-03T03:38:16.857Z,97952.16
2022-10-03T03:40:58.759Z,97951.44
2022-10-03T03:44:06.611Z,97950.72
2022-10-03T03:47:04.031Z,97958.88
2022-10-03T03:49:51.469Z,97965.09
2022-10-03T03:52:35.255Z,97963.66
2022-10-03T03:55:07.962Z,97966.28
2022-10-03T03:58:19.140Z,97971.22
2022-10-03T04:01:12.378Z,97962.81
2022-10-03T04:03:40.914Z,97966.75
2022-10-03T04:06:34.188Z,97968.81
2022-10-03T04:09:34.023Z,97966.75
2022-10-03T04:12:25.635Z,97970.25
2022-10-03T04:15:01.495Z,97968.81
2022-10-03T04:17:59.236Z,97967.34
2022-10-03T04:21:09.147Z,97967.91
2022-10-03T04:23:51.261Z,97981.69
2022-10-03T04:26:59.588Z,97985.75
2022-10-03T04:29:47.169Z,97989.13
2022-10-03T04:32:34.812Z,97979.59
2022-10-03T04:35:04.194Z,97973.69
2022-10-03T04:38:12.039Z,97977.63
2022-10-03T04:41:29.089Z,97976.47
2022-10-03T04:44:17.987Z,97985.44
2022-10-03T04:46:55.640Z,97995.75
2022-10-03T04:49:26.770Z,97990.22
2022-10-03T04:52:04.517Z,97997.06
2022-10-03T04:54:48.303Z,98008.53
2022-10-03T04:57:31.188Z,97999.44
2022-10-03T05:00:01.419Z,98002.63
2022-10-03T05:02:33.516Z,97992.94
2022-10-03T05:05:25.987Z,97985.94
2022-10-03T05:08:05.703Z,97985.72
2022-10-03T05:10:50.619Z,97982.69
2022-10-03T05:13:23.094Z,97988.78
2022-10-03T05:15:56.804Z,97989.69
2022-10-03T05:18:35.203Z,97986.53
2022-10-03T05:21:06.021Z,97995.47
2022-10-03T05:23:54.109Z,97987.06
2022-10-03T05:26:45.423Z,97985.41
2022-10-03T05:29:25.369Z,97996.53
2022-10-03T05:32:04.451Z,97993.00
2022-10-03T05:34:44.727Z,97996.88
2022-10-03T05:37:17.531Z,98007.94
2022-10-03T05:39:56.105Z,98013.75
2022-10-03T05:42:36.159Z,98012.59
2022-10-03T05:45:24.482Z,98020.53
2022-10-03T05:47:55.554Z,98025.00
2022-10-03T05:50:48.651Z,98034.81
2022-10-03T05:53:37.003Z,98033.03
2022-10-03T05:56:44.190Z,98025.81
2022-10-03T05:59:21.687Z,98030.06
2022-10-03T06:02:09.974Z,98026.22
2022-10-03T06:04:42.207Z,98027.38
2022-10-03T06:07:09.488Z,98033.94
2022-10-03T06:10:14.401Z,98031.47
2022-10-03T06:12:43.808Z,98036.50
2022-10-03T06:15:34.957Z,98041.59
2022-10-03T06:18:38.615Z,98039.25
2022-10-03T06:21:23.939Z,98041.84
2022-10-03T06:24:21.634Z,98025.78
2022-10-03T06:27:13.547Z,98032.56
2022-10-03T06:29:58.725Z,98032.25
2022-10-03T06:32:56.419Z,98038.47
2022-10-03T06:35:28.798Z,98036.78
2022-10-03T06:38:29.251Z,98036.94
2022-10-03T06:41:08.813Z,98040.28
2022-10-03T06:43:53.875Z,98041.72
2022-10-03T06:46:55.686Z,98050.25
2022-10-03T06:49:41.751Z,98054.16
2022-10-03T06:52:45.428Z,98048.50
2022-10-03T06:55:21.926Z,98055.31
2022-10-03T06:58:07.396Z,98057.66
2022-10-03T07:00:50.144Z,98054.78
2022-10-03T07:03:54.261Z,98052.66
2022-10-03T07:06:30.719Z,98047.28
2022-10-03T07:09:34.492Z,98039.50
2022-10-03T07:12:19.447Z,98047.47
2022-10-03T07:15:15.086Z,98055.59
2022-10-03T07:17:53.928Z,98058.59
2022-10-03T07:20:38.573Z,98059.06
2022-10-03T07:23:14.210Z,98058.91
2022-10-03T07:26:12.189Z,98061.38
2022-10-03T07:29:17.684Z,98067.44
2022-10-03T07:32:07.576Z,98059.19
2022-10-03T07:35:02.818Z,98061.03
2022-10-03T07:38:13.586Z,98065.09
2022-10-03T07:40:49.688Z,98079.88
2022-10-03T07:43:34.931Z,98070.31
2022-10-03T07:46:22.860Z,98070.59
2022-10-03T07:49:04.241Z,98082.31
2022-10-03T07:51:41.385Z,98078.66
2022-10-03T07:54:27.076Z,98071.09
2022-10-03T07:56:53.788Z,98071.78
2022-10-03T07:59:57.456Z,98082.03
2022-10-03T08:02:42.772Z,98075.47
2022-10-03T08:05:18.938Z,98074.75
2022-10-03T08:08:24.196Z,98074.50
2022-10-03T08:11:33.100Z,98079.00
2022-10-03T08:14:32.539Z,98083.00
2022-10-03T08:17:30.409Z,98095.66
2022-10-03T08:20:26.254Z,98090.78
2022-10-03T08:23:04.825Z,98088.22
2022-10-03T08:25:52.847Z,98089.94
2022-10-03T08:28:34.716Z,98095.69
2022-10-03T08:31:16.846Z,98093.91
2022-10-03T08:34:14.694Z,98088.41
2022-10-03T08:37:26.020Z,98083.53
2022-10-03T08:40:29.533Z,98081.41
2022-10-03T08:43:05.973Z,98086.09
2022-10-03T08:45:54.419Z,98090.28
2022-10-03T08:48:27.142Z,98083.75
2022-10-03T08:51:05.879Z,98089.66
2022-10-03T08:53:51.432Z,98084.56
2022-10-03T08:56:28.068Z,98085.28
2022-10-03T08:59:14.993Z,98085.09
2022-10-03T09:02:20.469Z,98084.91
2022-10-03T09:05:21.559Z,98087.28
2022-10-03T09:08:21.203Z,98086.34
2022-10-03T09:10:56.345Z,98092.56
2022-10-03T09:13:57.758Z,98089.59
2022-10-03T09:16:47.129Z,98094.31
2022-10-03T09:19:41.619Z,98091.94
2022-10-03T09:23:02.498Z,98091.78
2022-10-03T09:25:37.842Z,98087.72
2022-10-03T09:28:26.282Z,98093.63
2022-10-03T09:30:57.764Z,98084.25
2022-10-03T09:33:48.331Z,98088.50
2022-10-03T09:36:24.615Z,98090.88
2022-10-03T09:38:54.179Z,98097.50
2022-10-03T09:41:37.223Z,98094.41
2022-10-03T09:44:28.830Z,98093.97
2022-10-03T09:47:29.422Z,98090.94
2022-10-03T09:50:19.686Z,98085.69
2022-10-03T09:53:20.480Z,98086.66
2022-10-03T09:56:05.451Z,98088.50
2022-10-03T09:58:40.548Z,98078.34
2022-10-03T10:01:13.519Z,98076.66
2022-10-03T10:03:46.057Z,98081.38
2022-10-03T10:06:54.175Z,98080.88
2022-10-03T10:09:54.874Z,98077.84
2022-10-03T10:12:36.678Z,98071.63
2022-10-03T10:15:35.273Z,98071.72
2022-10-03T10:18:34.180Z,98073.75
2022-10-03T10:21:38.360Z,98076.06
2022-10-03T10:24:26.573Z,98067.06
2022-10-03T10:26:54.059Z,98068.75
2022-10-03T10:29:46.969Z,98076.44
2022-10-03T10:32:50.833Z,98072.59
2022-10-03T10:35:46.751Z,98066.59
2022-10-03T10:38:35.423Z,98074.53
2022-10-03T10:41:29.934Z,98065.75
2022-10-03T10:44:50.498Z,98066.22
2022-10-03T10:47:27.504Z,98060.94
2022-10-03T10:50:28.539Z,98059.50
2022-10-03T10:53:29.119Z,98066.69
2022-10-03T10:55:55.707Z,98062.69
2022-10-03T10:58:37.378Z,98051.25
2022-10-03T11:01:28.973Z,98057.16
2022-10-03T11:04:26.240Z,98056.69
2022-10-03T11:07:08.300Z,98055.25
2022-10-03T11:09:53.180Z,98047.94
2022-10-03T11:12:46.987Z,98056.97
2022-10-03T11:15:48.091Z,98049.75
2022-10-03T11:18:33.212Z,98052.72
2022-10-03T11:21:18.616Z,98047.38
2022-10-03T11:24:02.409Z,98047.34
2022-10-03T11:26:44.240Z,98044.47
2022-10-03T11:29:47.807Z,98044.78
2022-10-03T11:32:20.755Z,98038.56
2022-10-03T11:35:22.687Z,98038.91
2022-10-03T11:38:04.107Z,98042.19
2022-10-03T11:40:32.311Z,98041.84
2022-10-03T11:43:23.338Z,98033.16
2022-10-03T11:45:52.380Z,98030.84
2022-10-03T11:48:43.420Z,98014.75
2022-10-03T11:51:15.984Z,98015.22
2022-10-03T11:54:13.236Z,98016.66
2022-10-03T11:56:47.297Z,98017.94
2022-10-03T11:59:52.315Z,98011.69
2022-10-03T12:02:38.784Z,98010.78
2022-10-03T12:05:27.268Z,98008.03
2022-10-03T12:08:19.545Z,98020.00
2022-10-03T12:11:06.344Z,98009.25
2022-10-03T12:13:46.048Z,98011.34
2022-10-03T12:16:26.224Z,98005.63
2022-10-03T12:18:57.015Z,98009.56
2022-10-03T12:21:53.881Z,98006.16
2022-10-03T12:24:25.175Z,97995.28
2022-10-03T12:27:07.710Z,97998.97
2022-10-03T12:29:36.683Z,97992.63
2022-10-03T12:32:06.334Z,97990.47
2022-10-03T12:34:49.929Z,97989.72
2022-10-03T12:37:28.948Z,97991.16
2022-10-03T12:40:24.663Z,97976.00
2022-10-03T12:43:02.909Z,97978.56
2022-10-03T12:45:47.864Z,97966.44
2022-10-03T12:48:14.871Z,97974.47
2022-10-03T12:50:47.261Z,97971.28
2022-10-03T12:53:19.881Z,97966.47
2022-10-03T12:55:46.619Z,97973.84
2022-10-03T12:58:31.794Z,97965.31
2022-10-03T13:01:18.798Z,97965.63
2022-10-03T13:04:20.820Z,97974.25
2022-10-03T13:07:32.001Z,97975.28
2022-10-03T13:10:13.678Z,97967.06
2022-10-03T13:12:54.134Z,97965.59
2022-10-03T13:16:02.136Z,97965.91
2022-10-03T13:18:49.124Z,97949.66
2022-10-03T13:21:45.081Z,97947.09
2022-10-03T13:24:34.580Z,97953.72
2022-10-03T13:27:09.492Z,97949.19
2022-10-03T13:29:51.676Z,97953.84
2022-10-03T13:32:18.390Z,97953.06
2022-10-03T13:35:23.692Z,97950.81
2022-10-03T13:38:12.404Z,97949.19
2022-10-03T13:40:46.352Z,97940.44
2022-10-03T13:43:15.698Z,97952.78
2022-10-03T13:45:44.931Z,97944.84
2022-10-03T13:48:18.532Z,97946.88
2022-10-03T13:50:58.399Z,97955.63
2022-10-03T13:53:40.289Z,97956.97
2022-10-03T13:56:45.667Z,97951.13
2022-10-03T13:59:24.613Z,97954.38
2022-10-03T14:02:00.631Z,97950.03
2022-10-03T14:04:33.818Z,97950.91
2022-10-03T14:07:15.587Z,97949.78
2022-10-03T14:10:04.447Z,97944.94
2022-10-03T14:12:54.323Z,97945.97
2022-10-03T14:15:30.366Z,97947.81
2022-10-03T14:18:12.199Z,97941.38
2022-10-03T14:21:16.551Z,97948.34
2022-10-03T14:24:15.732Z,97945.47
2022-10-03T14:26:54.023Z,97942.59
2022-10-03T14:29:49.891Z,97952.69
2022-10-03T14:32:46.360Z,97946.88
2022-10-03T14:35:24.016Z,97942.16
2022-10-03T14:37:59.947Z,97946.88
2022-10-03T14:40:38.602Z,97947.66
2022-10-03T14:43:07.141Z,97939.84
2022-10-03T14:45:48.657Z,97931.16
2022-10-03T14:48:22.410Z,97935.16
2022-10-03T14:50:52.293Z,97931.00
2022-10-03T14:53:30.215Z,97927.41
2022-10-03T14:56:01.140Z,97920.66
2022-10-03T14:58:32.770Z,97912.28
2022-10-03T15:01:12.503Z,97913.00
2022-10-03T15:03:52.516Z,97910.84
2022-10-03T15:06:33.010Z,97911.03
2022-10-03T15:09:02.765Z,97918.72
2022-10-03T15:11:32.767Z,97914.72
2022-10-03T15:14:02.790Z,97906.22
2022-10-03T15:16:32.838Z,97910.22
2022-10-03T15:19:44.191Z,97911.22
2022-10-03T15:22:23.928Z,97907.78
2022-10-03T15:24:52.287Z,97901.63
2022-10-03T15:27:21.848Z,97906.25
2022-10-03T15:29:57.031Z,97907.53
2022-10-03T15:32:44.134Z,97902.31
2022-10-03T15:35:17.142Z,97888.75
2022-10-03T15:37:47.817Z,97892.91
2022-10-03T15:40:35.809Z,97895.44
2022-10-03T15:43:08.598Z,97894.16
2022-10-03T15:45:37.370Z,97890.09
2022-10-03T15:48:07.431Z,97892.97
2022-10-03T15:50:41.181Z,97886.22
2022-10-03T15:53:35.057Z,97894.75
2022-10-03T15:56:05.043Z,97892.47
2022-10-03T15:58:36.748Z,97896.19
2022-10-03T16:01:11.691Z,97890.06
2022-10-03T16:03:50.803Z,97891.75
2022-10-03T16:06:22.204Z,97884.41
2022-10-03T16:09:02.223Z,97891.47
2022-10-03T16:11:35.764Z,97893.13
2022-10-03T16:14:51.827Z,97887.25
2022-10-03T16:17:22.455Z,97895.88
2022-10-03T16:19:53.542Z,97901.28
2022-10-03T16:22:43.599Z,97905.94
2022-10-03T16:25:16.560Z,97907.84
2022-10-03T16:28:05.344Z,97909.75
2022-10-03T16:30:47.575Z,97905.28
2022-10-03T16:33:25.158Z,97904.81
2022-10-03T16:35:54.372Z,97901.63
2022-10-03T16:38:22.576Z,97892.25
2022-10-03T16:41:01.924Z,97899.16
2022-10-03T16:43:31.598Z,97896.63
2022-10-03T16:46:00.840Z,97898.28
2022-10-03T16:48:48.272Z,97890.19
2022-10-03T16:51:24.553Z,97887.53
2022-10-03T16:53:53.825Z,97891.78
2022-10-03T16:56:37.376Z,97892.56
2022-10-03T16:59:13.858Z,97883.19
2022-10-03T17:01:51.617Z,97885.28
2022-10-03T17:04:21.311Z,97880.53
2022-10-03T17:06:50.266Z,97881.44
2022-10-03T17:09:41.667Z,97886.25
2022-10-03T17:12:15.795Z,97875.88
2022-10-03T17:14:43.152Z,97866.50
2022-10-03T17:17:21.027Z,97872.16
2022-10-03T17:19:58.522Z,97879.59
2022-10-03T17:22:40.599Z,97874.84
2022-10-03T17:25:45.116Z,97871.09
2022-10-03T17:28:15.738Z,97870.97
2022-10-03T17:30:49.011Z,97871.88
2022-10-03T17:33:34.555Z,97863.47
2022-10-03T17:36:19.638Z,97870.00
2022-10-03T17:38:59.628Z,97869.72
2022-10-03T17:42:09.435Z,97865.38
2022-10-03T17:44:55.036Z,97856.38
2022-10-03T17:48:15.132Z,97861.84
2022-10-03T17:51:02.593Z,97862.53
2022-10-03T17:53:31.719Z,97861.06
2022-10-03T17:56:21.127Z,97858.88
2022-10-03T17:59:03.034Z,97860.13
2022-10-03T18:01:43.046Z,97859.81
2022-10-03T18:04:19.341Z,97853.44
2022-10-03T18:06:57.439Z,97854.41
2022-10-03T18:09:30.950Z,97850.59
2022-10-03T18:12:08.527Z,97850.19
2022-10-03T18:14:54.006Z,97850.47
2022-10-03T18:17:30.596Z,97852.03
2022-10-03T18:20:03.087Z,97852.88
2022-10-03T18:22:40.923Z,97855.75
2022-10-03T18:26:02.166Z,97846.34
2022-10-03T18:28:45.502Z,97850.66
2022-10-03T18:31:17.017Z,97850.66
2022-10-03T18:33:52.951Z,97846.63
2022-10-03T18:36:26.740Z,97847.44
2022-10-03T18:38:58.924Z,97842.66
2022-10-03T18:41:25.961Z,97843.53
2022-10-03T18:43:58.824Z,97844.25
2022-10-03T18:46:30.445Z,97844.38
2022-10-03T18:49:30.046Z,97836.13
2022-10-03T18:52:07.023Z,97841.03
2022-10-03T18:54:59.694Z,97836.84
2022-10-03T18:57:35.511Z,97843.06
2022-10-03T19:00:05.696Z,97844.38
2022-10-03T19:02:36.996Z,97847.13
2022-10-03T19:05:11.274Z,97832.03
2022-10-03T19:07:44.667Z,97814.81
2022-10-03T19:10:26.732Z,97819.59
2022-10-03T19:13:03.972Z,97834.69
2022-10-03T19:15:42.697Z,97829.19
2022-10-03T19:18:21.107Z,97820.19
2022-10-03T19:20:53.511Z,97827.13
2022-10-03T19:23:29.650Z,97827.72
2022-10-03T19:25:58.656Z,97827.03
2022-10-03T19:28:37.813Z,97829.63
2022-10-03T19:31:21.235Z,97834.41
2022-10-03T19:34:04.491Z,97822.69
2022-10-03T19:36:35.320Z,97824.00
2022-10-03T19:39:02.556Z,97825.31
2022-10-03T19:41:33.886Z,97815.47
2022-10-03T19:44:09.552Z,97813.31
2022-10-03T19:47:02.414Z,97822.88
2022-10-03T19:49:33.471Z,97809.13
2022-10-03T19:52:17.572Z,97812.44
2022-10-03T19:54:59.036Z,97801.31
2022-10-03T19:57:30.799Z,97806.69
2022-10-03T20:00:21.579Z,97808.59
2022-10-03T20:03:06.495Z,97801.66
2022-10-03T20:05:39.887Z,97801.53
2022-10-03T20:08:22.521Z,97798.06
2022-10-03T20:11:29.852Z,97804.13
2022-10-03T20:13:57.087Z,97812.22
2022-10-03T20:16:26.696Z,97819.63
2022-10-03T20:18:57.230Z,97815.44
2022-10-03T20:21:25.222Z,97807.59
2022-10-03T20:23:54.491Z,97804.44
2022-10-03T20:26:41.414Z,97804.31
2022-10-03T20:29:23.123Z,97804.63
2022-10-03T20:31:51.079Z,97810.56
2022-10-03T20:34:22.328Z,97813.75
2022-10-03T20:37:20.930Z,97810.88
2022-10-03T20:39:49.176Z,97812.22
2022-10-03T20:42:26.399Z,97805.13
2022-10-03T20:45:15.759Z,97803.69
2022-10-03T20:47:53.396Z,97802.09
2022-10-03T20:50:21.470Z,97799.94
2022-10-03T20:52:58.170Z,97796.34
2022-10-03T20:55:31.515Z,97798.38
2022-10-03T20:58:29.659Z,97794.16
2022-10-03T21:01:04.245Z,97796.06
2022-10-03T21:03:45.600Z,97794.47
2022-10-03T21:06:18.237Z,97793.50
2022-10-03T21:08:45.395Z,97799.56
2022-10-03T21:11:12.048Z,97795.38
2022-10-03T21:14:00.136Z,97800.16
2022-10-03T21:16:34.326Z,97786.84
2022-10-03T21:19:12.816Z,97786.56
2022-10-03T21:21:43.450Z,97780.22
2022-10-03T21:24:24.201Z,97776.66
2022-10-03T21:27:00.517Z,97774.47
2022-10-03T21:29:32.656Z,97775.66
2022-10-03T21:32:05.196Z,97773.47
2022-10-03T21:34:41.830Z,97772.75
2022-10-03T21:37:17.388Z,97762.34
2022-10-03T21:39:55.079Z,97772.63
2022-10-03T21:42:40.155Z,97764.81
2022-10-03T21:45:43.284Z,97766.56
2022-10-03T21:48:33.052Z,97762.97
2022-10-03T21:51:17.422Z,97761.38
2022-10-03T21:53:54.052Z,97757.78
2022-10-03T21:56:47.283Z,97763.72
2022-10-03T21:59:28.684Z,97763.72
2022-10-03T22:02:08.074Z,97757.94
2022-10-03T22:04:49.721Z,97753.63
2022-10-03T22:07:38.131Z,97747.84
2022-10-03T22:10:19.161Z,97742.94
2022-10-03T22:12:51.216Z,97744.25
2022-10-03T22:15:22.560Z,97743.50
2022-10-03T22:17:58.658Z,97739.31
2022-10-03T22:20:27.019Z,97729.50
2022-10-03T22:22:58.495Z,97743.69
2022-10-03T22:25:25.160Z,97749.16
2022-10-03T22:28:23.960Z,97746.84
2022-10-03T22:31:17.005Z,97747.41
2022-10-03T22:33:43.835Z,97754.81
2022-10-03T22:36:11.495Z,97751.78
2022-10-03T22:38:38.900Z,97756.38
2022-10-03T22:41:09.571Z,97760.44
2022-10-03T22:43:37.383Z,97756.84
2022-10-03T22:46:05.772Z,97759.44
2022-10-03T22:48:44.356Z,97760.03
2022-10-03T22:51:13.244Z,97755.84
2022-10-03T22:53:45.081Z,97754.97
2022-10-03T22:56:30.504Z,97755.56
2022-10-03T22:58:57.543Z,97759.47
2022-10-03T23:01:24.760Z,97747.03
2022-10-03T23:03:51.544Z,97745.59
2022-10-03T23:06:51.794Z,97749.50
2022-10-03T23:09:31.612Z,97740.97
2022-10-03T23:11:58.574Z,97737.34
2022-10-03T23:14:29.175Z,97735.06
2022-10-03T23:17:22.215Z,97732.16
2022-10-03T23:19:54.554Z,97727.97
2022-10-03T23:22:24.490Z,97721.63
2022-10-03T23:24:56.882Z,97720.19
2022-10-03T23:27:35.766Z,97722.91
2022-10-03T23:30:11.433Z,97722.78
2022-10-03T23:32:47.474Z,97719.31
2022-10-03T23:35:20.829Z,97720.63
2022-10-03T23:37:48.779Z,97730.88
2022-10-03T23:40:36.543Z,97723.94
2022-10-03T23:43:23.563Z,97721.78
2022-10-03T23:45:52.113Z,97719.63
2022-10-03T23:48:20.998Z,97711.22
2022-10-03T23:50:51.352Z,97711.81
2022-10-03T23:53:23.877Z,97723.50
2022-10-03T23:55:51.000Z,97709.53
2022-10-03T23:58:28.579Z,97716.88
